San Juan Capistrano, CA

6:01 AM PDT on August 27, 2014 (GMT -0700)
Covenant Hills | Change Station
CLOSE
Current Station
Personal Weather Station
Location: Ladera Ranch, CA
Elevation: 427 ft
Nearby Weather Stations
Active Advisory: High Surf Advisory Active Notice: Local Storm Report

Elev 427 ft 33.53 °N, 117.64 °W | Updated 1 minute ago

Clear
Clear
64.3 °F
Feels Like 64.3 °F
N
0.0
Wind Variable Wind from SE
Gusts 0.0 mph

Today
High -- | Low -- °F
--% Chance of Precip.
Yesterday
High -- | Low -- °F
Precip. -- in
6:21 AM 7:22 PM
Waxing Crescent, 3% visible
Pressure 30.25 in
Visibility 7.0 miles
Clouds Clear
Dew Point 59 °F
Humidity 83%
Rainfall 0.00 in
Snow Depth Not available.
UV 0 out of 12
Pollen 7.50 out of 12
Ozone Good
Flu Activity Not available.
METAR KNXF 271256Z AUTO 00000KT 7SM CLR 18/15 A3000 RMK AO2 SLP243 T01780150 $

More Conditions Fewer Conditions

Pressure 30.25 in
Visibility 7.0 miles
Clouds Clear
Dew Point 59 °F
Humidity 83%
Rainfall 0.00 in
Snow Depth Not available.
UV 0 out of 12
Pollen 7.50 out of 12
Ozone Good
Flu Activity Not available.
METAR KNXF 271256Z AUTO 00000KT 7SM CLR 18/15 A3000 RMK AO2 SLP243 T01780150 $

More Conditions Fewer Conditions

10-Day Weather Forecast

Almanac

Astronomy

Aug. 27, 2014 Rise Set
Actual Time 6:21 AM PDT 7:22 PM PDT
Civil Twilight 5:55 AM PDT 7:47 PM PDT
Nautical Twilight 5:25 AM PDT 8:17 PM PDT
Astronomical Twilight 4:53 AM PDT 8:49 PM PDT
Moon 8:13 AM PDT 8:26 PM PDT
Length of Visible Light 13h 52m
Length of Day
13h 00m
Tomorrow will be 1m 56s shorter.
Waxing Crescent, 3% of the Moon is Illuminated
Today
Waxing Crescent
Sep 2
First Quarter
Sep 8
Full
Sep 15
Last Quarter
Sep 24
New

Today's Extremes

State Highs State Lows

Community

WunderPhotos

Upload Photos

1,747,680 photos uploaded!

Nearby

Air Quality

  Air Quality AQ Index Pollutant
Yesterday Good
OZONE
Current Good
OZONE
Wednesday Good
PM10
Wednesday Good
OZONE
Wednesday Good
CO
Wednesday Good
NO2

Snow Depth

Station Depth Elevation
Leavitt Lake 1 in 9400 ft
Leavitt Meadows 1 in 7200 ft
Sonora Pass 0 in 8800 ft
Summit Meadow 1 in 9122 ft
Ebbetts Pass 0 in 8700 ft

Earthquake Activity

City Distance Mag. Time & Date
San Fernando, California 68 miles 2.5 4:57 AM PDT
2014-08-26
Progreso, Mexico 128 miles 2.6 10:55 PM PDT
2014-08-25
San Pedro, California 40 miles 3.2 7:50 PM PDT
2014-08-24
Minimum magnitude displayed is 2.5.

Coastal Water Temperatures

Place Temperature
Santa Monica Pier 69.1 °F
Los Angeles, CA 66.9 °F
La Jolla, CA 72.0 °F

Nearby Weather Stations